To NAV CANADA Home Page Login to a new session Search on AWWS site Disclaimer Vers la page française équivalente Tips FAQ What's new on the site To the Forecasts and Observations / NOTAM section To "File a Flight Plan" website Publications and other links Update of the User's profile FIC Telephone Numbers My Weather Data Folder Route Weather Data Regional Weather Data Local Weather Data To the Forecasts and Observations / NOTAM section
Request Generated 05/19/2019 at 15:08:24 UTC . Weather information available at that time is displayed.

METAR/TAF

TORONTO/BILLY BISHOP TORONTO CITY AIRPORT/ON    (show WxCam)

METAR CYTZ 191500Z AUTO 07015KT 9SM CLR 12/08 A2984 RMK SLP108=
METAR CYTZ 191400Z AUTO 07011KT 9SM CLR 11/07 A2986 RMK SLP113=
METAR CYTZ 191300Z AUTO 08011KT 9SM CLR 09/06 A2987 RMK SLP116=

TAF CYTZ 191338Z 1914/2014 08010KT P6SM SCT090
FM191500 11010KT P6SM SCT060 PROB30 1915/1918 2SM TSRA BR
OVC050CB
FM192200 08008KT P6SM -SHRA BKN060 PROB30 1922/2004 VRB15G25KT
11/2SM +TSRA BR OVC030CB
FM200400 23010G20KT P6SM BKN060 TEMPO 2004/2009 P6SM -SHRA
FM200900 22012KT P6SM BKN020
BECMG 2010/2012 25015G25KT
RMK FCST BASED ON AUTO OBS. NXT FCST BY 192000Z=
Your time UTC time
Weather data provided by Environment Canada and NAV CANADA